sensor_id;sensor_type;location;lat;lon;timestamp;P1;durP1;ratioP1;P2;durP2;ratioP2
8640;SDS011;4358;42.100;25.222;2022-12-18T00:02:20;13.57;;;8.40;;
8640;SDS011;4358;42.100;25.222;2022-12-18T00:04:48;13.90;;;7.87;;
8640;SDS011;4358;42.100;25.222;2022-12-18T00:07:15;15.43;;;8.50;;
8640;SDS011;4358;42.100;25.222;2022-12-18T00:09:41;13.10;;;7.03;;
8640;SDS011;4358;42.100;25.222;2022-12-18T00:12:08;11.00;;;7.07;;
8640;SDS011;4358;42.100;25.222;2022-12-18T00:14:35;14.80;;;7.40;;
8640;SDS011;4358;42.100;25.222;2022-12-18T00:17:02;12.70;;;7.33;;
8640;SDS011;4358;42.100;25.222;2022-12-18T00:19:30;12.10;;;7.63;;
8640;SDS011;4358;42.100;25.222;2022-12-18T00:21:57;14.20;;;7.83;;
8640;SDS011;4358;42.100;25.222;2022-12-18T00:24:24;15.87;;;7.47;;
8640;SDS011;4358;42.100;25.222;2022-12-18T00:26:51;13.33;;;7.13;;
8640;SDS011;4358;42.100;25.222;2022-12-18T00:29:18;16.47;;;8.03;;
8640;SDS011;4358;42.100;25.222;2022-12-18T00:31:45;14.20;;;8.00;;
8640;SDS011;4358;42.100;25.222;2022-12-18T00:34:12;15.83;;;7.23;;
8640;SDS011;4358;42.100;25.222;2022-12-18T00:36:40;13.17;;;7.03;;
8640;SDS011;4358;42.100;25.222;2022-12-18T00:39:08;11.10;;;7.23;;
8640;SDS011;4358;42.100;25.222;2022-12-18T00:41:36;13.07;;;8.53;;
8640;SDS011;4358;42.100;25.222;2022-12-18T00:44:20;14.33;;;8.13;;
8640;SDS011;4358;42.100;25.222;2022-12-18T00:46:47;18.53;;;9.00;;
8640;SDS011;4358;42.100;25.222;2022-12-18T00:49:15;10.90;;;7.80;;
8640;SDS011;4358;42.100;25.222;2022-12-18T00:51:44;15.73;;;8.43;;
8640;SDS011;4358;42.100;25.222;2022-12-18T00:54:11;14.10;;;8.43;;
8640;SDS011;4358;42.100;25.222;2022-12-18T00:56:38;15.90;;;10.07;;
8640;SDS011;4358;42.100;25.222;2022-12-18T00:59:05;13.40;;;8.23;;
8640;SDS011;4358;42.100;25.222;2022-12-18T01:01:32;17.90;;;9.70;;
8640;SDS011;4358;42.100;25.222;2022-12-18T01:03:59;18.13;;;9.67;;
8640;SDS011;4358;42.100;25.222;2022-12-18T01:06:27;15.60;;;9.83;;
8640;SDS011;4358;42.100;25.222;2022-12-18T01:08:55;15.50;;;8.67;;
8640;SDS011;4358;42.100;25.222;2022-12-18T01:11:22;12.97;;;8.20;;
8640;SDS011;4358;42.100;25.222;2022-12-18T01:13:51;17.73;;;8.80;;
8640;SDS011;4358;42.100;25.222;2022-12-18T01:16:18;14.37;;;8.37;;
8640;SDS011;4358;42.100;25.222;2022-12-18T01:18:45;16.00;;;7.63;;
8640;SDS011;4358;42.100;25.222;2022-12-18T01:21:13;14.33;;;9.17;;
8640;SDS011;4358;42.100;25.222;2022-12-18T01:23:44;29.07;;;10.30;;
8640;SDS011;4358;42.100;25.222;2022-12-18T01:26:14;13.17;;;9.40;;
8640;SDS011;4358;42.100;25.222;2022-12-18T01:28:42;19.97;;;12.17;;
8640;SDS011;4358;42.100;25.222;2022-12-18T01:31:13;17.00;;;10.27;;
8640;SDS011;4358;42.100;25.222;2022-12-18T01:33:43;20.13;;;11.17;;
8640;SDS011;4358;42.100;25.222;2022-12-18T01:36:17;20.53;;;11.33;;
8640;SDS011;4358;42.100;25.222;2022-12-18T01:38:46;21.07;;;11.00;;
8640;SDS011;4358;42.100;25.222;2022-12-18T01:41:16;16.53;;;10.63;;
8640;SDS011;4358;42.100;25.222;2022-12-18T01:43:45;19.60;;;10.83;;
8640;SDS011;4358;42.100;25.222;2022-12-18T01:46:17;15.50;;;9.33;;
8640;SDS011;4358;42.100;25.222;2022-12-18T01:48:46;17.23;;;10.67;;
8640;SDS011;4358;42.100;25.222;2022-12-18T01:51:15;17.47;;;9.43;;
8640;SDS011;4358;42.100;25.222;2022-12-18T01:53:43;20.30;;;10.27;;
8640;SDS011;4358;42.100;25.222;2022-12-18T01:56:17;16.57;;;10.07;;
8640;SDS011;4358;42.100;25.222;2022-12-18T01:58:48;18.13;;;9.17;;
8640;SDS011;4358;42.100;25.222;2022-12-18T02:01:21;13.80;;;7.77;;
8640;SDS011;4358;42.100;25.222;2022-12-18T02:03:48;14.90;;;8.33;;
8640;SDS011;4358;42.100;25.222;2022-12-18T02:06:16;16.07;;;8.73;;
8640;SDS011;4358;42.100;25.222;2022-12-18T02:08:48;14.37;;;8.33;;
8640;SDS011;4358;42.100;25.222;2022-12-18T02:11:28;12.37;;;7.70;;
8640;SDS011;4358;42.100;25.222;2022-12-18T02:14:04;16.37;;;8.37;;
8640;SDS011;4358;42.100;25.222;2022-12-18T02:16:43;13.30;;;8.30;;
8640;SDS011;4358;42.100;25.222;2022-12-18T02:19:20;14.80;;;7.63;;
8640;SDS011;4358;42.100;25.222;2022-12-18T02:22:14;14.00;;;8.13;;
8640;SDS011;4358;42.100;25.222;2022-12-18T02:24:54;12.23;;;6.87;;
8640;SDS011;4358;42.100;25.222;2022-12-18T02:27:33;12.33;;;7.67;;
8640;SDS011;4358;42.100;25.222;2022-12-18T02:30:03;14.27;;;8.73;;
8640;SDS011;4358;42.100;25.222;2022-12-18T02:32:32;13.80;;;8.00;;
8640;SDS011;4358;42.100;25.222;2022-12-18T02:35:02;17.00;;;9.20;;
8640;SDS011;4358;42.100;25.222;2022-12-18T02:37:31;15.00;;;8.27;;
8640;SDS011;4358;42.100;25.222;2022-12-18T02:40:00;17.13;;;9.53;;
8640;SDS011;4358;42.100;25.222;2022-12-18T02:42:31;16.67;;;9.97;;
8640;SDS011;4358;42.100;25.222;2022-12-18T02:44:59;15.90;;;9.40;;
8640;SDS011;4358;42.100;25.222;2022-12-18T02:47:27;13.87;;;7.97;;
8640;SDS011;4358;42.100;25.222;2022-12-18T02:49:59;13.50;;;8.53;;
8640;SDS011;4358;42.100;25.222;2022-12-18T02:52:35;15.90;;;9.27;;
8640;SDS011;4358;42.100;25.222;2022-12-18T02:55:11;14.30;;;8.70;;
8640;SDS011;4358;42.100;25.222;2022-12-18T02:57:46;17.20;;;9.20;;
8640;SDS011;4358;42.100;25.222;2022-12-18T03:00:17;17.47;;;8.77;;
8640;SDS011;4358;42.100;25.222;2022-12-18T03:02:47;17.80;;;9.50;;
8640;SDS011;4358;42.100;25.222;2022-12-18T03:05:21;13.83;;;7.63;;
8640;SDS011;4358;42.100;25.222;2022-12-18T03:07:52;16.10;;;8.40;;
8640;SDS011;4358;42.100;25.222;2022-12-18T03:10:24;13.70;;;9.13;;
8640;SDS011;4358;42.100;25.222;2022-12-18T03:12:56;16.07;;;9.00;;
8640;SDS011;4358;42.100;25.222;2022-12-18T03:15:28;16.83;;;9.30;;
8640;SDS011;4358;42.100;25.222;2022-12-18T03:18:01;14.50;;;8.60;;
8640;SDS011;4358;42.100;25.222;2022-12-18T03:20:31;15.57;;;8.63;;
8640;SDS011;4358;42.100;25.222;2022-12-18T03:23:02;15.93;;;9.50;;
8640;SDS011;4358;42.100;25.222;2022-12-18T03:25:35;16.23;;;9.50;;
8640;SDS011;4358;42.100;25.222;2022-12-18T03:28:07;17.63;;;9.57;;
8640;SDS011;4358;42.100;25.222;2022-12-18T03:30:40;17.47;;;9.63;;
8640;SDS011;4358;42.100;25.222;2022-12-18T03:33:10;12.50;;;8.47;;
8640;SDS011;4358;42.100;25.222;2022-12-18T03:35:41;13.70;;;8.20;;
8640;SDS011;4358;42.100;25.222;2022-12-18T03:38:09;18.40;;;9.13;;
8640;SDS011;4358;42.100;25.222;2022-12-18T03:40:40;12.90;;;8.60;;
8640;SDS011;4358;42.100;25.222;2022-12-18T03:43:14;16.73;;;9.00;;
8640;SDS011;4358;42.100;25.222;2022-12-18T03:45:48;13.77;;;8.37;;
8640;SDS011;4358;42.100;25.222;2022-12-18T03:48:19;12.17;;;8.53;;
8640;SDS011;4358;42.100;25.222;2022-12-18T03:50:53;17.07;;;10.13;;
8640;SDS011;4358;42.100;25.222;2022-12-18T03:53:25;13.37;;;8.13;;
8640;SDS011;4358;42.100;25.222;2022-12-18T03:55:59;16.97;;;9.63;;
8640;SDS011;4358;42.100;25.222;2022-12-18T03:58:29;15.37;;;8.80;;
8640;SDS011;4358;42.100;25.222;2022-12-18T04:01:00;17.57;;;9.73;;
8640;SDS011;4358;42.100;25.222;2022-12-18T04:03:30;16.33;;;9.70;;
8640;SDS011;4358;42.100;25.222;2022-12-18T04:05:58;18.97;;;10.83;;
8640;SDS011;4358;42.100;25.222;2022-12-18T04:08:27;15.07;;;10.80;;
8640;SDS011;4358;42.100;25.222;2022-12-18T04:10:55;17.23;;;10.43;;
8640;SDS011;4358;42.100;25.222;2022-12-18T04:13:22;17.70;;;10.43;;
8640;SDS011;4358;42.100;25.222;2022-12-18T04:15:51;13.03;;;9.20;;
8640;SDS011;4358;42.100;25.222;2022-12-18T04:18:18;13.47;;;9.03;;
8640;SDS011;4358;42.100;25.222;2022-12-18T04:20:45;13.63;;;8.83;;
8640;SDS011;4358;42.100;25.222;2022-12-18T04:23:12;16.33;;;9.87;;
8640;SDS011;4358;42.100;25.222;2022-12-18T04:25:39;12.87;;;8.77;;
8640;SDS011;4358;42.100;25.222;2022-12-18T04:28:06;15.90;;;8.67;;
8640;SDS011;4358;42.100;25.222;2022-12-18T04:30:32;13.43;;;9.10;;
8640;SDS011;4358;42.100;25.222;2022-12-18T04:33:01;13.43;;;8.33;;
8640;SDS011;4358;42.100;25.222;2022-12-18T04:35:27;13.93;;;8.97;;
8640;SDS011;4358;42.100;25.222;2022-12-18T04:37:55;14.40;;;9.43;;
8640;SDS011;4358;42.100;25.222;2022-12-18T04:40:22;16.77;;;9.97;;
8640;SDS011;4358;42.100;25.222;2022-12-18T04:42:49;17.47;;;9.03;;
8640;SDS011;4358;42.100;25.222;2022-12-18T04:45:15;16.07;;;9.30;;
8640;SDS011;4358;42.100;25.222;2022-12-18T04:47:42;15.87;;;9.30;;
8640;SDS011;4358;42.100;25.222;2022-12-18T04:50:10;12.53;;;9.13;;
8640;SDS011;4358;42.100;25.222;2022-12-18T04:52:37;13.83;;;8.90;;
8640;SDS011;4358;42.100;25.222;2022-12-18T04:55:04;14.10;;;8.40;;
8640;SDS011;4358;42.100;25.222;2022-12-18T04:57:32;12.17;;;8.30;;
8640;SDS011;4358;42.100;25.222;2022-12-18T04:59:58;15.43;;;9.97;;
8640;SDS011;4358;42.100;25.222;2022-12-18T05:02:25;13.80;;;8.30;;
8640;SDS011;4358;42.100;25.222;2022-12-18T05:04:52;16.23;;;9.07;;
8640;SDS011;4358;42.100;25.222;2022-12-18T05:07:20;12.17;;;8.20;;
8640;SDS011;4358;42.100;25.222;2022-12-18T05:09:47;16.93;;;10.27;;
8640;SDS011;4358;42.100;25.222;2022-12-18T05:12:14;17.43;;;10.33;;
8640;SDS011;4358;42.100;25.222;2022-12-18T05:14:41;16.40;;;10.57;;
8640;SDS011;4358;42.100;25.222;2022-12-18T05:17:08;16.27;;;11.30;;
8640;SDS011;4358;42.100;25.222;2022-12-18T05:19:34;18.80;;;10.83;;
8640;SDS011;4358;42.100;25.222;2022-12-18T05:22:01;18.67;;;11.87;;
8640;SDS011;4358;42.100;25.222;2022-12-18T05:24:29;17.30;;;11.80;;
8640;SDS011;4358;42.100;25.222;2022-12-18T05:26:56;17.60;;;11.90;;
8640;SDS011;4358;42.100;25.222;2022-12-18T05:29:23;18.30;;;12.73;;
8640;SDS011;4358;42.100;25.222;2022-12-18T05:31:50;14.87;;;11.00;;
8640;SDS011;4358;42.100;25.222;2022-12-18T05:34:17;19.20;;;12.53;;
8640;SDS011;4358;42.100;25.222;2022-12-18T05:36:44;18.23;;;12.60;;
8640;SDS011;4358;42.100;25.222;2022-12-18T05:39:11;20.07;;;13.57;;
8640;SDS011;4358;42.100;25.222;2022-12-18T05:41:39;18.00;;;13.03;;
8640;SDS011;4358;42.100;25.222;2022-12-18T05:44:06;20.83;;;12.43;;
8640;SDS011;4358;42.100;25.222;2022-12-18T05:46:33;17.00;;;11.07;;
8640;SDS011;4358;42.100;25.222;2022-12-18T05:48:59;18.13;;;11.43;;
8640;SDS011;4358;42.100;25.222;2022-12-18T05:51:27;18.27;;;12.87;;
8640;SDS011;4358;42.100;25.222;2022-12-18T05:53:54;18.90;;;12.87;;
8640;SDS011;4358;42.100;25.222;2022-12-18T05:56:21;19.43;;;11.17;;
8640;SDS011;4358;42.100;25.222;2022-12-18T05:58:52;17.70;;;10.63;;
8640;SDS011;4358;42.100;25.222;2022-12-18T06:01:20;15.80;;;9.93;;
8640;SDS011;4358;42.100;25.222;2022-12-18T06:03:48;16.43;;;9.33;;
8640;SDS011;4358;42.100;25.222;2022-12-18T06:06:15;15.40;;;9.23;;
8640;SDS011;4358;42.100;25.222;2022-12-18T06:08:43;10.73;;;7.10;;
8640;SDS011;4358;42.100;25.222;2022-12-18T06:11:11;11.97;;;7.47;;
8640;SDS011;4358;42.100;25.222;2022-12-18T06:13:38;11.83;;;7.80;;
8640;SDS011;4358;42.100;25.222;2022-12-18T06:16:07;13.23;;;7.27;;
8640;SDS011;4358;42.100;25.222;2022-12-18T06:18:34;13.60;;;7.07;;
8640;SDS011;4358;42.100;25.222;2022-12-18T06:21:01;9.07;;;5.10;;
8640;SDS011;4358;42.100;25.222;2022-12-18T06:23:28;9.70;;;5.70;;
8640;SDS011;4358;42.100;25.222;2022-12-18T06:25:55;9.83;;;5.77;;
8640;SDS011;4358;42.100;25.222;2022-12-18T06:28:21;6.37;;;3.97;;
8640;SDS011;4358;42.100;25.222;2022-12-18T06:30:49;8.53;;;4.57;;
8640;SDS011;4358;42.100;25.222;2022-12-18T06:33:17;10.73;;;6.97;;
8640;SDS011;4358;42.100;25.222;2022-12-18T06:35:44;7.50;;;4.30;;
8640;SDS011;4358;42.100;25.222;2022-12-18T06:38:11;8.40;;;4.73;;
8640;SDS011;4358;42.100;25.222;2022-12-18T06:40:38;9.53;;;6.07;;
8640;SDS011;4358;42.100;25.222;2022-12-18T06:43:05;8.13;;;5.67;;
8640;SDS011;4358;42.100;25.222;2022-12-18T06:45:33;10.57;;;7.03;;
8640;SDS011;4358;42.100;25.222;2022-12-18T06:48:00;10.07;;;6.67;;
8640;SDS011;4358;42.100;25.222;2022-12-18T06:50:28;11.73;;;6.17;;
8640;SDS011;4358;42.100;25.222;2022-12-18T06:52:55;9.97;;;6.17;;
8640;SDS011;4358;42.100;25.222;2022-12-18T06:55:22;11.10;;;7.23;;
8640;SDS011;4358;42.100;25.222;2022-12-18T06:57:49;6.80;;;4.63;;
8640;SDS011;4358;42.100;25.222;2022-12-18T07:00:16;9.80;;;5.80;;
8640;SDS011;4358;42.100;25.222;2022-12-18T07:02:43;15.30;;;7.80;;
8640;SDS011;4358;42.100;25.222;2022-12-18T07:05:10;10.10;;;6.60;;
8640;SDS011;4358;42.100;25.222;2022-12-18T07:07:38;17.30;;;9.50;;
8640;SDS011;4358;42.100;25.222;2022-12-18T07:10:05;8.43;;;4.80;;
8640;SDS011;4358;42.100;25.222;2022-12-18T07:14:59;6.07;;;3.70;;
8640;SDS011;4358;42.100;25.222;2022-12-18T07:17:26;3.60;;;2.77;;
8640;SDS011;4358;42.100;25.222;2022-12-18T07:19:53;10.63;;;6.13;;
8640;SDS011;4358;42.100;25.222;2022-12-18T07:22:20;20.87;;;9.87;;
8640;SDS011;4358;42.100;25.222;2022-12-18T07:24:48;9.77;;;5.37;;
8640;SDS011;4358;42.100;25.222;2022-12-18T07:27:15;5.53;;;3.83;;
8640;SDS011;4358;42.100;25.222;2022-12-18T07:29:42;6.93;;;3.00;;
8640;SDS011;4358;42.100;25.222;2022-12-18T07:32:09;3.03;;;2.47;;
8640;SDS011;4358;42.100;25.222;2022-12-18T07:34:36;3.33;;;2.70;;
8640;SDS011;4358;42.100;25.222;2022-12-18T07:37:03;3.20;;;2.23;;
8640;SDS011;4358;42.100;25.222;2022-12-18T07:39:29;2.93;;;2.50;;
8640;SDS011;4358;42.100;25.222;2022-12-18T07:41:57;5.40;;;3.07;;
8640;SDS011;4358;42.100;25.222;2022-12-18T07:44:42;4.70;;;3.67;;
8640;SDS011;4358;42.100;25.222;2022-12-18T07:47:09;3.83;;;3.10;;
8640;SDS011;4358;42.100;25.222;2022-12-18T07:49:36;3.57;;;2.33;;
8640;SDS011;4358;42.100;25.222;2022-12-18T07:52:03;5.20;;;3.80;;
8640;SDS011;4358;42.100;25.222;2022-12-18T07:54:29;4.57;;;3.37;;
8640;SDS011;4358;42.100;25.222;2022-12-18T07:56:58;5.47;;;3.37;;
8640;SDS011;4358;42.100;25.222;2022-12-18T07:59:25;4.37;;;2.97;;
8640;SDS011;4358;42.100;25.222;2022-12-18T08:01:52;4.63;;;2.63;;
8640;SDS011;4358;42.100;25.222;2022-12-18T08:04:19;3.83;;;3.03;;
8640;SDS011;4358;42.100;25.222;2022-12-18T08:06:46;5.70;;;3.33;;
8640;SDS011;4358;42.100;25.222;2022-12-18T08:09:13;5.67;;;3.67;;
8640;SDS011;4358;42.100;25.222;2022-12-18T08:11:40;5.60;;;3.57;;
8640;SDS011;4358;42.100;25.222;2022-12-18T08:14:08;6.23;;;4.33;;
8640;SDS011;4358;42.100;25.222;2022-12-18T08:16:36;6.70;;;3.77;;
8640;SDS011;4358;42.100;25.222;2022-12-18T08:19:03;5.90;;;2.77;;
8640;SDS011;4358;42.100;25.222;2022-12-18T08:21:30;4.53;;;2.77;;
8640;SDS011;4358;42.100;25.222;2022-12-18T08:23:59;4.43;;;3.13;;
8640;SDS011;4358;42.100;25.222;2022-12-18T08:26:27;3.77;;;2.60;;
8640;SDS011;4358;42.100;25.222;2022-12-18T08:28:56;3.40;;;2.57;;
8640;SDS011;4358;42.100;25.222;2022-12-18T08:31:26;7.10;;;3.13;;
8640;SDS011;4358;42.100;25.222;2022-12-18T08:33:55;6.27;;;3.20;;
8640;SDS011;4358;42.100;25.222;2022-12-18T08:36:22;5.67;;;3.27;;
8640;SDS011;4358;42.100;25.222;2022-12-18T08:38:50;6.93;;;3.27;;
8640;SDS011;4358;42.100;25.222;2022-12-18T08:41:17;5.90;;;2.87;;
8640;SDS011;4358;42.100;25.222;2022-12-18T08:43:45;5.27;;;2.77;;
8640;SDS011;4358;42.100;25.222;2022-12-18T08:46:33;4.67;;;3.17;;
8640;SDS011;4358;42.100;25.222;2022-12-18T08:49:02;4.47;;;3.10;;
8640;SDS011;4358;42.100;25.222;2022-12-18T08:51:29;5.13;;;2.70;;
8640;SDS011;4358;42.100;25.222;2022-12-18T08:53:56;5.33;;;3.37;;
8640;SDS011;4358;42.100;25.222;2022-12-18T08:56:23;2.73;;;2.43;;
8640;SDS011;4358;42.100;25.222;2022-12-18T08:58:51;5.13;;;3.33;;
8640;SDS011;4358;42.100;25.222;2022-12-18T09:01:18;5.23;;;3.53;;
8640;SDS011;4358;42.100;25.222;2022-12-18T09:03:47;5.50;;;3.33;;
8640;SDS011;4358;42.100;25.222;2022-12-18T09:06:15;6.63;;;3.23;;
8640;SDS011;4358;42.100;25.222;2022-12-18T09:08:43;4.47;;;3.13;;
8640;SDS011;4358;42.100;25.222;2022-12-18T09:11:12;4.67;;;3.00;;
8640;SDS011;4358;42.100;25.222;2022-12-18T09:13:40;3.93;;;2.70;;
8640;SDS011;4358;42.100;25.222;2022-12-18T09:16:07;4.57;;;2.90;;
8640;SDS011;4358;42.100;25.222;2022-12-18T09:18:34;4.60;;;3.00;;
8640;SDS011;4358;42.100;25.222;2022-12-18T09:21:08;6.53;;;3.47;;
8640;SDS011;4358;42.100;25.222;2022-12-18T09:23:36;5.80;;;3.97;;
8640;SDS011;4358;42.100;25.222;2022-12-18T09:26:03;5.03;;;3.57;;
8640;SDS011;4358;42.100;25.222;2022-12-18T09:28:30;5.87;;;3.27;;
8640;SDS011;4358;42.100;25.222;2022-12-18T09:30:57;4.93;;;3.00;;
8640;SDS011;4358;42.100;25.222;2022-12-18T09:33:24;3.70;;;2.73;;
8640;SDS011;4358;42.100;25.222;2022-12-18T09:35:51;6.23;;;4.00;;
8640;SDS011;4358;42.100;25.222;2022-12-18T09:38:19;5.50;;;3.70;;
8640;SDS011;4358;42.100;25.222;2022-12-18T09:40:49;7.40;;;3.77;;
8640;SDS011;4358;42.100;25.222;2022-12-18T09:43:20;6.27;;;3.13;;
8640;SDS011;4358;42.100;25.222;2022-12-18T09:45:53;7.03;;;3.13;;
8640;SDS011;4358;42.100;25.222;2022-12-18T09:48:26;10.83;;;5.87;;
8640;SDS011;4358;42.100;25.222;2022-12-18T09:50:57;8.57;;;5.80;;
8640;SDS011;4358;42.100;25.222;2022-12-18T09:53:31;8.77;;;4.43;;
8640;SDS011;4358;42.100;25.222;2022-12-18T09:56:01;5.37;;;3.70;;
8640;SDS011;4358;42.100;25.222;2022-12-18T09:58:31;7.93;;;4.40;;
8640;SDS011;4358;42.100;25.222;2022-12-18T10:01:06;5.17;;;3.37;;
8640;SDS011;4358;42.100;25.222;2022-12-18T10:03:36;6.50;;;3.90;;
8640;SDS011;4358;42.100;25.222;2022-12-18T10:06:05;6.23;;;3.47;;
8640;SDS011;4358;42.100;25.222;2022-12-18T10:08:40;4.83;;;2.90;;
8640;SDS011;4358;42.100;25.222;2022-12-18T10:14:05;4.27;;;3.13;;
8640;SDS011;4358;42.100;25.222;2022-12-18T10:16:42;4.57;;;3.37;;
8640;SDS011;4358;42.100;25.222;2022-12-18T10:19:19;7.53;;;4.30;;
8640;SDS011;4358;42.100;25.222;2022-12-18T10:22:00;8.83;;;4.07;;
8640;SDS011;4358;42.100;25.222;2022-12-18T10:24:38;4.00;;;3.17;;
8640;SDS011;4358;42.100;25.222;2022-12-18T10:27:12;3.97;;;2.80;;
8640;SDS011;4358;42.100;25.222;2022-12-18T10:29:41;5.27;;;3.57;;
8640;SDS011;4358;42.100;25.222;2022-12-18T10:32:09;3.90;;;3.00;;
8640;SDS011;4358;42.100;25.222;2022-12-18T10:34:45;3.50;;;2.97;;
8640;SDS011;4358;42.100;25.222;2022-12-18T10:37:14;5.50;;;3.57;;
8640;SDS011;4358;42.100;25.222;2022-12-18T10:39:45;6.83;;;3.93;;
8640;SDS011;4358;42.100;25.222;2022-12-18T10:42:16;4.37;;;3.07;;
8640;SDS011;4358;42.100;25.222;2022-12-18T10:44:45;4.73;;;3.20;;
8640;SDS011;4358;42.100;25.222;2022-12-18T10:47:12;5.43;;;3.57;;
8640;SDS011;4358;42.100;25.222;2022-12-18T10:49:46;4.33;;;3.20;;
8640;SDS011;4358;42.100;25.222;2022-12-18T10:52:17;6.67;;;3.90;;
8640;SDS011;4358;42.100;25.222;2022-12-18T10:54:49;4.63;;;3.73;;
8640;SDS011;4358;42.100;25.222;2022-12-18T10:57:28;10.63;;;4.43;;
8640;SDS011;4358;42.100;25.222;2022-12-18T10:59:59;8.00;;;5.17;;
8640;SDS011;4358;42.100;25.222;2022-12-18T11:02:28;7.57;;;5.77;;
8640;SDS011;4358;42.100;25.222;2022-12-18T11:05:01;6.60;;;5.00;;
8640;SDS011;4358;42.100;25.222;2022-12-18T11:07:45;7.73;;;5.03;;
8640;SDS011;4358;42.100;25.222;2022-12-18T11:10:17;7.23;;;4.20;;
8640;SDS011;4358;42.100;25.222;2022-12-18T11:12:44;6.70;;;4.47;;
8640;SDS011;4358;42.100;25.222;2022-12-18T11:15:15;5.53;;;3.83;;
8640;SDS011;4358;42.100;25.222;2022-12-18T11:17:45;5.10;;;3.80;;
8640;SDS011;4358;42.100;25.222;2022-12-18T11:20:21;7.53;;;3.80;;
8640;SDS011;4358;42.100;25.222;2022-12-18T11:22:57;6.00;;;4.27;;
8640;SDS011;4358;42.100;25.222;2022-12-18T11:25:27;6.27;;;4.43;;
8640;SDS011;4358;42.100;25.222;2022-12-18T11:27:56;6.40;;;4.63;;
8640;SDS011;4358;42.100;25.222;2022-12-18T11:30:25;11.47;;;6.03;;
8640;SDS011;4358;42.100;25.222;2022-12-18T11:32:58;8.00;;;5.60;;
8640;SDS011;4358;42.100;25.222;2022-12-18T11:35:35;8.33;;;6.07;;
8640;SDS011;4358;42.100;25.222;2022-12-18T11:38:12;6.67;;;4.63;;
8640;SDS011;4358;42.100;25.222;2022-12-18T11:40:47;6.97;;;5.00;;
8640;SDS011;4358;42.100;25.222;2022-12-18T11:43:20;8.60;;;4.83;;
8640;SDS011;4358;42.100;25.222;2022-12-18T11:45:54;10.17;;;5.43;;
8640;SDS011;4358;42.100;25.222;2022-12-18T11:48:26;6.37;;;4.77;;
8640;SDS011;4358;42.100;25.222;2022-12-18T11:50:58;6.97;;;4.53;;
8640;SDS011;4358;42.100;25.222;2022-12-18T11:53:27;7.57;;;4.63;;
8640;SDS011;4358;42.100;25.222;2022-12-18T11:55:59;8.03;;;4.83;;
8640;SDS011;4358;42.100;25.222;2022-12-18T11:58:38;5.83;;;4.20;;
8640;SDS011;4358;42.100;25.222;2022-12-18T12:01:15;7.30;;;4.47;;
8640;SDS011;4358;42.100;25.222;2022-12-18T12:07:03;6.03;;;4.00;;
8640;SDS011;4358;42.100;25.222;2022-12-18T12:09:41;6.47;;;3.60;;
8640;SDS011;4358;42.100;25.222;2022-12-18T12:12:23;4.73;;;3.57;;
8640;SDS011;4358;42.100;25.222;2022-12-18T12:15:13;6.43;;;4.63;;
8640;SDS011;4358;42.100;25.222;2022-12-18T12:17:50;7.43;;;4.57;;
8640;SDS011;4358;42.100;25.222;2022-12-18T12:20:23;11.67;;;5.97;;
8640;SDS011;4358;42.100;25.222;2022-12-18T12:22:59;10.67;;;5.27;;
8640;SDS011;4358;42.100;25.222;2022-12-18T12:25:33;5.87;;;3.57;;
8640;SDS011;4358;42.100;25.222;2022-12-18T12:28:12;8.80;;;4.93;;
8640;SDS011;4358;42.100;25.222;2022-12-18T12:30:50;5.60;;;4.53;;
8640;SDS011;4358;42.100;25.222;2022-12-18T12:33:30;7.77;;;4.43;;
8640;SDS011;4358;42.100;25.222;2022-12-18T12:36:05;9.63;;;4.50;;
8640;SDS011;4358;42.100;25.222;2022-12-18T12:38:37;7.63;;;4.70;;
8640;SDS011;4358;42.100;25.222;2022-12-18T12:41:09;7.97;;;4.87;;
8640;SDS011;4358;42.100;25.222;2022-12-18T12:43:55;6.87;;;5.30;;
8640;SDS011;4358;42.100;25.222;2022-12-18T12:46:26;10.93;;;5.93;;
8640;SDS011;4358;42.100;25.222;2022-12-18T12:48:53;6.90;;;4.60;;
8640;SDS011;4358;42.100;25.222;2022-12-18T12:51:23;5.67;;;4.00;;
8640;SDS011;4358;42.100;25.222;2022-12-18T12:53:54;8.50;;;5.73;;
8640;SDS011;4358;42.100;25.222;2022-12-18T12:56:24;5.60;;;3.87;;
8640;SDS011;4358;42.100;25.222;2022-12-18T12:59:08;5.50;;;4.07;;
8640;SDS011;4358;42.100;25.222;2022-12-18T13:01:47;8.17;;;4.57;;
8640;SDS011;4358;42.100;25.222;2022-12-18T13:04:21;4.90;;;2.93;;
8640;SDS011;4358;42.100;25.222;2022-12-18T13:06:56;3.63;;;2.57;;
8640;SDS011;4358;42.100;25.222;2022-12-18T13:09:29;5.03;;;3.00;;
8640;SDS011;4358;42.100;25.222;2022-12-18T13:12:01;3.87;;;2.87;;
8640;SDS011;4358;42.100;25.222;2022-12-18T13:14:48;3.50;;;2.60;;
8640;SDS011;4358;42.100;25.222;2022-12-18T13:20:04;5.93;;;3.47;;
8640;SDS011;4358;42.100;25.222;2022-12-18T13:22:39;3.73;;;2.47;;
8640;SDS011;4358;42.100;25.222;2022-12-18T13:28:07;4.63;;;2.80;;
8640;SDS011;4358;42.100;25.222;2022-12-18T13:30:48;5.73;;;3.60;;
8640;SDS011;4358;42.100;25.222;2022-12-18T13:36:25;5.17;;;3.40;;
8640;SDS011;4358;42.100;25.222;2022-12-18T13:45:40;6.97;;;3.53;;
8640;SDS011;4358;42.100;25.222;2022-12-18T13:48:22;7.53;;;3.73;;
8640;SDS011;4358;42.100;25.222;2022-12-18T13:50:53;8.63;;;5.50;;
8640;SDS011;4358;42.100;25.222;2022-12-18T13:53:24;8.70;;;5.53;;
8640;SDS011;4358;42.100;25.222;2022-12-18T13:55:54;8.20;;;5.57;;
8640;SDS011;4358;42.100;25.222;2022-12-18T13:58:21;8.37;;;5.97;;
8640;SDS011;4358;42.100;25.222;2022-12-18T14:00:48;8.97;;;5.37;;
8640;SDS011;4358;42.100;25.222;2022-12-18T14:03:16;8.63;;;5.13;;
8640;SDS011;4358;42.100;25.222;2022-12-18T14:05:46;5.43;;;4.07;;
8640;SDS011;4358;42.100;25.222;2022-12-18T14:08:20;7.87;;;4.93;;
8640;SDS011;4358;42.100;25.222;2022-12-18T14:10:48;8.60;;;5.33;;
8640;SDS011;4358;42.100;25.222;2022-12-18T14:13:20;7.27;;;4.03;;
8640;SDS011;4358;42.100;25.222;2022-12-18T14:15:51;8.10;;;4.40;;
8640;SDS011;4358;42.100;25.222;2022-12-18T14:18:21;5.57;;;3.63;;
8640;SDS011;4358;42.100;25.222;2022-12-18T14:20:53;4.23;;;3.20;;
8640;SDS011;4358;42.100;25.222;2022-12-18T14:23:27;5.50;;;3.17;;
8640;SDS011;4358;42.100;25.222;2022-12-18T14:25:55;6.17;;;3.30;;
8640;SDS011;4358;42.100;25.222;2022-12-18T14:28:22;5.73;;;3.57;;
8640;SDS011;4358;42.100;25.222;2022-12-18T14:30:49;5.20;;;3.40;;
8640;SDS011;4358;42.100;25.222;2022-12-18T14:33:20;7.27;;;3.77;;
8640;SDS011;4358;42.100;25.222;2022-12-18T14:35:54;4.73;;;3.23;;
8640;SDS011;4358;42.100;25.222;2022-12-18T14:38:24;3.93;;;2.93;;
8640;SDS011;4358;42.100;25.222;2022-12-18T14:40:53;6.67;;;3.60;;
8640;SDS011;4358;42.100;25.222;2022-12-18T14:43:22;6.13;;;3.77;;
8640;SDS011;4358;42.100;25.222;2022-12-18T14:45:49;7.67;;;4.57;;
8640;SDS011;4358;42.100;25.222;2022-12-18T14:48:17;6.27;;;3.90;;
8640;SDS011;4358;42.100;25.222;2022-12-18T14:50:55;6.57;;;3.40;;
8640;SDS011;4358;42.100;25.222;2022-12-18T14:53:27;5.60;;;3.50;;
8640;SDS011;4358;42.100;25.222;2022-12-18T14:56:00;10.57;;;5.20;;
8640;SDS011;4358;42.100;25.222;2022-12-18T14:58:28;8.50;;;4.40;;
8640;SDS011;4358;42.100;25.222;2022-12-18T15:00:55;8.43;;;4.87;;
8640;SDS011;4358;42.100;25.222;2022-12-18T15:03:22;9.73;;;5.83;;
8640;SDS011;4358;42.100;25.222;2022-12-18T15:05:49;7.63;;;5.47;;
8640;SDS011;4358;42.100;25.222;2022-12-18T15:08:30;8.37;;;4.53;;
8640;SDS011;4358;42.100;25.222;2022-12-18T15:11:01;10.90;;;5.97;;
8640;SDS011;4358;42.100;25.222;2022-12-18T15:13:28;16.53;;;8.57;;
8640;SDS011;4358;42.100;25.222;2022-12-18T15:15:55;7.17;;;4.90;;
8640;SDS011;4358;42.100;25.222;2022-12-18T15:18:29;10.17;;;6.50;;
8640;SDS011;4358;42.100;25.222;2022-12-18T15:20:59;8.30;;;5.97;;
8640;SDS011;4358;42.100;25.222;2022-12-18T15:23:38;12.00;;;6.60;;
8640;SDS011;4358;42.100;25.222;2022-12-18T15:26:14;13.43;;;5.70;;
8640;SDS011;4358;42.100;25.222;2022-12-18T15:28:44;23.93;;;11.57;;
8640;SDS011;4358;42.100;25.222;2022-12-18T15:31:22;20.23;;;11.30;;
8640;SDS011;4358;42.100;25.222;2022-12-18T15:34:02;17.33;;;9.63;;
8640;SDS011;4358;42.100;25.222;2022-12-18T15:36:37;14.00;;;8.80;;